Terminal Aerodrome Forecast
Issued by NWS

Home | Current Version | Previous Version | Text Only | Print | Product List | Glossary On
Versions: 1 2 3 4 5 6 7 8 9 10 11 12 13 14 15 16 17
000
FTAK31 PAJN 041700
TAFAYA
TAF
PAYA 041720Z 0418/0518 07006KT 6SM -RA BR BKN015 OVC020
     FM042100 11010KT 4SM -RA BR BKN008 OVC015
     FM050600 11008KT 6SM BR VCSH BKN020 OVC040
     FM051200 08005KT P6SM VCSH SCT020 OVC040
      AMD LTD TO CLD VIS AND WIND 0501/0510=

USA.gov is the U.S. government's official web portal to all federal, state and local government web resources and services.